Amelia, Ohio
Current Conditions -  °F | °C
As of 3:53 PM on Monday 24 Nov 2014 (Local Time) from KLUK Reporting Station
Overcast Overcast  
Wind Chill: 38°   Ceiling: 3400
Heat Index: 46°   Visibility: 10mi
Dew Point: 34°   Wind: 21mph
Humidity: 63%   Direction: 240°WSW
Pressure: 29.73"   Gusts: 31mph
Location:  39.03°N, 84.22°W
Report Text: KLUK 242053Z 24018G27KT 10SM OVC034 08/01 A2973 RMK AO2 PK WND 25030/2019 SLP068 T00780011 51046
Loading
Personal Weather Stations






























Interactive Weather Map New forecast layout! Learn more

10-Day Weather Forecast

Advertisements
Track Severe Weather on mobile